createdAt,value
2022-11-29T00:00:30.685Z,8.82
2022-11-29T00:02:57.633Z,9.25
2022-11-29T00:05:24.238Z,10.45
2022-11-29T00:07:52.189Z,10.35
2022-11-29T00:10:19.076Z,15.43
2022-11-29T00:12:46.916Z,11.82
2022-11-29T00:15:13.450Z,11.43
2022-11-29T00:17:40.019Z,10.68
2022-11-29T00:20:07.838Z,13.90
2022-11-29T00:22:34.429Z,11.73
2022-11-29T00:25:02.837Z,15.52
2022-11-29T00:27:29.586Z,8.98
2022-11-29T00:29:56.122Z,10.38
2022-11-29T00:32:22.783Z,11.40
2022-11-29T00:34:49.345Z,11.93
2022-11-29T00:37:15.934Z,10.75
2022-11-29T00:39:42.567Z,12.25
2022-11-29T00:42:10.496Z,13.27
2022-11-29T00:44:36.987Z,10.63
2022-11-29T00:47:03.624Z,12.25
2022-11-29T00:49:30.118Z,12.38
2022-11-29T00:51:56.710Z,14.93
2022-11-29T00:54:23.260Z,12.10
2022-11-29T00:56:49.834Z,13.15
2022-11-29T00:59:17.697Z,13.80
2022-11-29T01:01:44.529Z,15.23
2022-11-29T01:04:11.209Z,17.88
2022-11-29T01:06:37.818Z,15.98
2022-11-29T01:09:04.664Z,17.13
2022-11-29T01:11:31.241Z,12.13
2022-11-29T01:14:00.350Z,16.45
2022-11-29T01:16:29.689Z,14.88
2022-11-29T01:18:56.479Z,9.55
2022-11-29T01:21:24.541Z,12.07
2022-11-29T01:23:53.233Z,11.15
2022-11-29T01:26:22.210Z,9.50
2022-11-29T01:28:52.280Z,11.90
2022-11-29T01:31:21.277Z,12.75
2022-11-29T01:33:53.241Z,9.10
2022-11-29T01:36:19.809Z,11.18
2022-11-29T01:38:46.615Z,9.90
2022-11-29T01:41:16.382Z,13.25
2022-11-29T01:43:59.590Z,11.48
2022-11-29T01:46:27.618Z,10.10
2022-11-29T01:49:00.165Z,11.73
2022-11-29T01:51:28.202Z,9.10
2022-11-29T01:53:55.208Z,8.35
2022-11-29T01:56:23.421Z,12.00
2022-11-29T01:58:50.172Z,11.48
2022-11-29T02:01:16.898Z,11.48
2022-11-29T02:03:43.541Z,10.75
2022-11-29T02:06:11.559Z,10.60
2022-11-29T02:08:40.607Z,11.77
2022-11-29T02:11:37.701Z,8.93
2022-11-29T02:14:18.417Z,8.60
2022-11-29T02:16:56.881Z,11.07
2022-11-29T02:19:47.176Z,14.18
2022-11-29T02:22:20.679Z,10.45
2022-11-29T02:25:06.904Z,9.02
2022-11-29T02:28:07.520Z,11.32
2022-11-29T02:31:04.257Z,12.75
2022-11-29T02:33:53.456Z,12.07
2022-11-29T02:36:45.257Z,14.65
2022-11-29T02:39:39.249Z,10.20
2022-11-29T02:42:26.618Z,14.60
2022-11-29T02:45:07.926Z,10.73
2022-11-29T02:47:51.383Z,13.65
2022-11-29T02:50:29.806Z,14.15
2022-11-29T02:53:05.446Z,10.27
2022-11-29T02:55:37.268Z,13.80
2022-11-29T02:58:13.675Z,11.75
2022-11-29T03:00:50.006Z,11.52
2022-11-29T03:03:23.361Z,9.68
2022-11-29T03:05:57.415Z,14.52
2022-11-29T03:08:34.200Z,10.40
2022-11-29T03:11:09.265Z,9.10
2022-11-29T03:13:48.059Z,11.98
2022-11-29T03:16:28.342Z,9.15
2022-11-29T03:19:05.371Z,9.50
2022-11-29T03:21:41.038Z,10.48
2022-11-29T03:24:15.687Z,14.50
2022-11-29T03:26:45.455Z,8.90
2022-11-29T03:29:19.031Z,24.23
2022-11-29T03:31:52.571Z,13.13
2022-11-29T03:34:29.864Z,19.70
2022-11-29T03:37:06.107Z,11.35
2022-11-29T03:39:41.347Z,10.27
2022-11-29T03:42:13.119Z,11.27
2022-11-29T03:44:46.654Z,12.73
2022-11-29T03:47:17.924Z,12.18
2022-11-29T03:49:49.246Z,11.82
2022-11-29T03:52:21.288Z,11.05
2022-11-29T03:55:00.419Z,14.80
2022-11-29T03:57:34.180Z,15.07
2022-11-29T04:00:05.441Z,10.88
2022-11-29T04:03:11.200Z,14.35
2022-11-29T04:05:55.749Z,15.30
2022-11-29T04:08:59.678Z,15.95
2022-11-29T04:11:50.660Z,14.45
2022-11-29T04:14:31.107Z,14.27
2022-11-29T04:17:17.308Z,16.83
2022-11-29T04:20:05.304Z,18.45
2022-11-29T04:22:54.856Z,17.25
2022-11-29T04:25:34.421Z,14.20
2022-11-29T04:28:31.917Z,13.65
2022-11-29T04:31:09.357Z,17.85
2022-11-29T04:34:03.268Z,15.48
2022-11-29T04:36:48.712Z,14.27
2022-11-29T04:39:45.539Z,15.18
2022-11-29T04:42:35.976Z,12.38
2022-11-29T04:45:35.199Z,19.85
2022-11-29T04:48:21.032Z,11.80
2022-11-29T04:50:57.860Z,12.70
2022-11-29T04:53:34.868Z,18.45
2022-11-29T04:56:12.443Z,14.60
2022-11-29T04:58:44.528Z,12.23
2022-11-29T05:01:21.596Z,14.18
2022-11-29T05:03:57.236Z,15.13
2022-11-29T05:06:29.065Z,22.35
2022-11-29T05:09:07.074Z,16.85
2022-11-29T05:11:49.977Z,15.38
2022-11-29T05:14:25.112Z,12.98
2022-11-29T05:17:09.375Z,21.02
2022-11-29T05:19:56.200Z,14.35
2022-11-29T05:22:32.822Z,26.67
2022-11-29T05:25:18.868Z,13.13
2022-11-29T05:27:48.652Z,21.33
2022-11-29T05:30:17.935Z,18.40
2022-11-29T05:32:56.002Z,19.88
2022-11-29T05:35:51.581Z,16.67
2022-11-29T05:38:38.344Z,14.02
2022-11-29T05:41:20.173Z,15.68
2022-11-29T05:43:57.925Z,13.27
2022-11-29T05:46:30.839Z,15.85
2022-11-29T05:49:10.276Z,19.55
2022-11-29T05:51:45.713Z,16.17
2022-11-29T05:54:24.927Z,17.35
2022-11-29T05:57:05.123Z,17.05
2022-11-29T05:59:34.206Z,17.20
2022-11-29T06:02:09.728Z,16.05
2022-11-29T06:04:50.941Z,16.25
2022-11-29T06:07:22.911Z,15.20
2022-11-29T06:10:00.540Z,19.85
2022-11-29T06:12:28.701Z,20.90
2022-11-29T06:15:39.980Z,13.15
2022-11-29T06:18:27.214Z,21.08
2022-11-29T06:21:10.838Z,18.90
2022-11-29T06:23:54.639Z,24.70
2022-11-29T06:26:47.637Z,31.83
2022-11-29T06:29:23.754Z,27.25
2022-11-29T06:31:58.566Z,26.95
2022-11-29T06:34:33.001Z,30.35
2022-11-29T06:37:05.497Z,26.70
2022-11-29T06:39:32.689Z,22.73
2022-11-29T06:41:59.177Z,28.10
2022-11-29T06:44:26.348Z,25.48
2022-11-29T06:47:00.949Z,26.48
2022-11-29T06:49:30.018Z,26.65
2022-11-29T06:52:19.273Z,27.55
2022-11-29T06:54:58.256Z,28.75
2022-11-29T06:57:34.172Z,28.10
2022-11-29T07:00:06.096Z,28.63
2022-11-29T07:05:19.971Z,32.72
2022-11-29T07:07:48.977Z,30.20
2022-11-29T07:10:17.837Z,29.38
2022-11-29T07:12:45.872Z,30.73
2022-11-29T07:15:15.218Z,33.75
2022-11-29T07:17:53.767Z,24.48
2022-11-29T07:20:26.433Z,30.58
2022-11-29T07:23:09.357Z,24.00
2022-11-29T07:25:46.989Z,30.30
2022-11-29T07:28:27.148Z,26.77
2022-11-29T07:31:05.419Z,34.05
2022-11-29T07:33:43.270Z,27.35
2022-11-29T07:36:18.148Z,31.73
2022-11-29T07:38:57.028Z,28.80
2022-11-29T07:41:32.577Z,45.95
2022-11-29T07:44:08.444Z,27.90
2022-11-29T07:46:35.008Z,32.25
2022-11-29T07:49:01.516Z,29.20
2022-11-29T07:51:28.146Z,29.30
2022-11-29T07:53:56.036Z,32.17
2022-11-29T07:56:22.764Z,32.30
2022-11-29T07:58:49.364Z,35.85
2022-11-29T08:01:16.009Z,31.33
2022-11-29T08:03:42.539Z,35.90
2022-11-29T08:06:09.736Z,35.92
2022-11-29T08:08:40.704Z,46.47
2022-11-29T08:11:12.751Z,42.65
2022-11-29T08:13:39.341Z,45.05
2022-11-29T08:16:06.653Z,50.30
2022-11-29T08:18:33.256Z,41.60
2022-11-29T08:21:05.553Z,58.38
2022-11-29T08:23:32.087Z,40.05
2022-11-29T08:25:59.804Z,39.38
2022-11-29T08:28:27.761Z,39.13
2022-11-29T08:31:01.086Z,61.42
2022-11-29T08:33:27.786Z,44.10
2022-11-29T08:35:54.302Z,45.85
2022-11-29T08:38:20.897Z,52.95
2022-11-29T08:40:47.626Z,56.08
2022-11-29T08:43:14.255Z,58.10
2022-11-29T08:45:42.162Z,48.75
2022-11-29T08:48:08.749Z,51.45
2022-11-29T08:50:35.255Z,57.13
2022-11-29T08:53:01.898Z,57.92
2022-11-29T08:55:32.665Z,58.75
2022-11-29T08:58:04.381Z,56.88
2022-11-29T09:00:31.632Z,63.10
2022-11-29T09:03:01.100Z,64.60
2022-11-29T09:05:27.707Z,64.25
2022-11-29T09:07:54.254Z,63.55
2022-11-29T09:10:20.861Z,62.22
2022-11-29T09:12:47.374Z,63.53
2022-11-29T09:15:13.901Z,63.83
2022-11-29T09:17:40.375Z,74.32
2022-11-29T09:20:09.285Z,62.65
2022-11-29T09:22:35.786Z,65.43
2022-11-29T09:25:02.489Z,73.22
2022-11-29T09:27:28.998Z,68.30
2022-11-29T09:29:55.608Z,66.50
2022-11-29T09:32:22.106Z,76.75
2022-11-29T09:34:48.795Z,65.60
2022-11-29T09:37:16.632Z,61.83
2022-11-29T09:39:43.220Z,63.15
2022-11-29T09:42:23.877Z,70.63
2022-11-29T09:44:58.440Z,65.07
2022-11-29T09:47:36.829Z,54.72
2022-11-29T09:50:19.396Z,71.35
2022-11-29T09:52:54.069Z,60.92
2022-11-29T09:55:38.889Z,70.30
2022-11-29T09:58:10.396Z,65.88
2022-11-29T10:00:45.213Z,64.80
2022-11-29T10:03:17.403Z,64.75
2022-11-29T10:05:47.636Z,59.55
2022-11-29T10:08:21.756Z,60.05
2022-11-29T10:10:50.689Z,64.15
2022-11-29T10:13:22.430Z,56.65
2022-11-29T10:18:23.154Z,59.65
2022-11-29T10:20:52.234Z,62.97
2022-11-29T10:23:24.082Z,66.07
2022-11-29T10:25:53.324Z,70.68
2022-11-29T10:28:22.150Z,60.45
2022-11-29T10:30:49.237Z,55.85
2022-11-29T10:33:19.324Z,54.22
2022-11-29T10:35:47.158Z,56.38
2022-11-29T10:38:30.197Z,52.60
2022-11-29T10:41:05.667Z,47.40
2022-11-29T10:43:32.314Z,49.13
2022-11-29T10:45:59.123Z,48.70
2022-11-29T10:48:28.322Z,47.33
2022-11-29T10:50:54.889Z,45.13
2022-11-29T10:53:25.384Z,44.85
2022-11-29T10:55:58.957Z,49.40
2022-11-29T10:58:28.994Z,51.20
2022-11-29T11:00:58.184Z,49.90
2022-11-29T11:03:33.437Z,48.80
2022-11-29T11:06:04.082Z,40.13
2022-11-29T11:08:32.530Z,40.08
2022-11-29T11:11:01.760Z,45.10
2022-11-29T11:13:32.416Z,44.47
2022-11-29T11:16:14.347Z,41.15
2022-11-29T11:21:10.497Z,38.67
2022-11-29T11:23:45.790Z,34.28
2022-11-29T11:26:14.473Z,35.33
2022-11-29T11:28:49.086Z,34.63
2022-11-29T11:31:25.086Z,41.88
2022-11-29T11:33:51.776Z,40.55
2022-11-29T11:36:23.736Z,38.20
2022-11-29T11:38:52.035Z,38.65
2022-11-29T11:41:22.629Z,35.88
2022-11-29T11:43:57.256Z,32.50
2022-11-29T11:46:44.123Z,33.70
2022-11-29T11:49:12.693Z,33.55
2022-11-29T11:51:42.290Z,37.50
2022-11-29T11:54:14.528Z,37.22
2022-11-29T11:56:41.334Z,43.72
2022-11-29T11:59:17.894Z,39.13
2022-11-29T12:01:44.677Z,38.08
2022-11-29T12:04:15.544Z,38.40
2022-11-29T12:06:48.668Z,38.17
2022-11-29T12:09:24.989Z,38.63
2022-11-29T12:12:00.456Z,34.20
2022-11-29T12:14:36.689Z,34.38
2022-11-29T12:17:15.525Z,33.08
2022-11-29T12:19:59.034Z,35.78
2022-11-29T12:22:33.033Z,56.30
2022-11-29T12:25:05.275Z,48.35
2022-11-29T12:27:32.129Z,40.88
2022-11-29T12:30:00.209Z,38.08
2022-11-29T12:32:48.734Z,39.33
2022-11-29T12:35:49.382Z,43.17
2022-11-29T12:38:33.131Z,38.58
2022-11-29T12:41:11.502Z,39.25
2022-11-29T12:43:52.586Z,39.65
2022-11-29T12:46:24.293Z,38.20
2022-11-29T12:51:31.902Z,48.08
2022-11-29T12:54:14.670Z,50.70
2022-11-29T12:56:48.475Z,45.67
2022-11-29T12:59:25.368Z,51.45
2022-11-29T13:02:13.916Z,41.08
2022-11-29T13:04:46.098Z,43.10
2022-11-29T13:07:22.602Z,52.83
2022-11-29T13:10:02.832Z,54.15
2022-11-29T13:12:36.504Z,44.58
2022-11-29T13:15:06.823Z,51.17
2022-11-29T13:17:42.443Z,49.92
2022-11-29T13:20:30.684Z,56.03
2022-11-29T13:23:04.978Z,49.05
2022-11-29T13:25:36.915Z,47.95
2022-11-29T13:28:07.132Z,45.13
2022-11-29T13:30:34.861Z,48.03
2022-11-29T13:33:12.040Z,44.47
2022-11-29T13:35:45.801Z,46.95
2022-11-29T13:38:19.460Z,45.80
2022-11-29T13:40:56.610Z,51.38
2022-11-29T13:43:30.750Z,49.45
2022-11-29T13:46:06.424Z,48.45
2022-11-29T13:48:45.669Z,49.10
2022-11-29T13:51:30.509Z,41.78
2022-11-29T13:53:59.455Z,49.17
2022-11-29T13:56:32.856Z,47.53
2022-11-29T13:59:00.844Z,50.80
2022-11-29T14:01:28.422Z,44.00
2022-11-29T14:04:06.126Z,54.45
2022-11-29T14:06:34.807Z,46.40
2022-11-29T14:09:23.829Z,50.03
2022-11-29T14:11:58.229Z,48.53
2022-11-29T14:14:28.911Z,45.13
2022-11-29T14:16:59.329Z,45.90
2022-11-29T14:19:33.520Z,43.08
2022-11-29T14:22:17.290Z,52.95
2022-11-29T14:24:56.668Z,44.60
2022-11-29T14:27:46.304Z,48.38
2022-11-29T14:30:47.200Z,44.60
2022-11-29T14:33:58.385Z,46.40
2022-11-29T14:36:43.484Z,39.33
2022-11-29T14:39:31.031Z,41.92
2022-11-29T14:42:09.597Z,55.95
2022-11-29T14:44:44.251Z,52.22
2022-11-29T14:47:20.310Z,43.05
2022-11-29T14:49:47.069Z,50.03
2022-11-29T14:52:26.099Z,45.45
2022-11-29T14:54:57.284Z,46.90
2022-11-29T14:57:53.393Z,50.35
2022-11-29T15:00:21.606Z,47.50
2022-11-29T15:02:50.806Z,50.10
2022-11-29T15:05:20.502Z,53.78
2022-11-29T15:07:54.637Z,55.30
2022-11-29T15:10:25.450Z,50.17
2022-11-29T15:12:53.503Z,53.47
2022-11-29T15:15:36.389Z,50.85
2022-11-29T15:18:16.399Z,48.38
2022-11-29T15:21:07.285Z,52.70
2022-11-29T15:23:42.274Z,53.88
2022-11-29T15:26:17.554Z,55.08
2022-11-29T15:28:44.625Z,50.30
2022-11-29T15:31:14.721Z,55.28
2022-11-29T15:33:43.691Z,55.38
2022-11-29T15:36:15.967Z,56.67
2022-11-29T15:38:45.965Z,48.13
2022-11-29T15:41:19.651Z,51.67
2022-11-29T15:43:51.025Z,56.33
2022-11-29T15:46:24.357Z,54.15
2022-11-29T15:48:50.919Z,51.38
2022-11-29T15:51:24.682Z,55.53
2022-11-29T15:54:12.115Z,54.30
2022-11-29T15:56:45.097Z,51.72
2022-11-29T15:59:18.524Z,55.00
2022-11-29T16:01:48.106Z,51.83
2022-11-29T16:04:18.563Z,54.80
2022-11-29T16:06:46.958Z,53.45
2022-11-29T16:09:17.452Z,43.90
2022-11-29T16:11:45.184Z,44.60
2022-11-29T16:14:18.762Z,51.28
2022-11-29T16:16:47.677Z,46.72
2022-11-29T16:19:30.137Z,53.05
2022-11-29T16:22:21.910Z,57.47
2022-11-29T16:25:02.512Z,51.92
2022-11-29T16:27:31.909Z,49.88
2022-11-29T16:29:58.616Z,51.42
2022-11-29T16:32:28.867Z,55.78
2022-11-29T16:34:57.007Z,46.28
2022-11-29T16:37:25.669Z,44.58
2022-11-29T16:39:59.315Z,42.05
2022-11-29T16:42:27.438Z,43.58
2022-11-29T16:45:31.227Z,36.08
2022-11-29T16:47:57.923Z,39.45
2022-11-29T16:50:25.653Z,43.35
2022-11-29T16:52:56.552Z,46.88
2022-11-29T16:55:24.881Z,52.67
2022-11-29T16:57:51.418Z,44.72
2022-11-29T17:00:30.249Z,42.72
2022-11-29T17:02:57.023Z,46.25
2022-11-29T17:05:23.712Z,43.00
2022-11-29T17:07:53.340Z,31.15
2022-11-29T17:10:23.707Z,26.60
2022-11-29T17:12:51.646Z,40.28
2022-11-29T17:15:18.248Z,37.92
2022-11-29T17:17:44.890Z,33.80
2022-11-29T17:20:12.468Z,39.88
2022-11-29T17:22:38.977Z,48.70
2022-11-29T17:25:06.169Z,46.28
2022-11-29T17:27:32.742Z,46.33
2022-11-29T17:30:00.621Z,40.08
2022-11-29T17:32:27.332Z,44.45
2022-11-29T17:34:53.943Z,38.92
2022-11-29T17:37:20.463Z,41.75
2022-11-29T17:39:47.190Z,48.28
2022-11-29T17:42:13.837Z,53.38
2022-11-29T17:44:40.335Z,39.08
2022-11-29T17:47:08.214Z,33.45
2022-11-29T17:49:34.857Z,29.63
2022-11-29T17:52:01.450Z,38.30
2022-11-29T17:54:27.992Z,35.65
2022-11-29T17:56:55.048Z,40.42
2022-11-29T17:59:21.568Z,45.13
2022-11-29T18:01:48.183Z,40.90
2022-11-29T18:04:16.177Z,46.85
2022-11-29T18:06:42.693Z,56.63
2022-11-29T18:09:10.520Z,34.05
2022-11-29T18:11:47.104Z,43.08
2022-11-29T18:14:16.222Z,39.97
2022-11-29T18:16:43.112Z,35.97
2022-11-29T18:19:13.220Z,44.08
2022-11-29T18:21:41.318Z,70.95
2022-11-29T18:24:08.986Z,82.03
2022-11-29T18:26:36.527Z,76.38
2022-11-29T18:29:03.733Z,95.75
2022-11-29T18:31:32.370Z,92.93
2022-11-29T18:34:00.395Z,51.78
2022-11-29T18:36:28.672Z,77.57
2022-11-29T18:38:58.215Z,96.47
2022-11-29T18:41:25.383Z,73.78
2022-11-29T18:43:56.946Z,29.80
2022-11-29T18:46:23.764Z,30.52
2022-11-29T18:48:50.338Z,36.08
2022-11-29T18:51:18.708Z,40.80
2022-11-29T18:53:45.982Z,43.53
2022-11-29T18:56:16.314Z,44.60
2022-11-29T18:58:43.766Z,41.58
2022-11-29T19:01:12.628Z,53.25
2022-11-29T19:03:41.251Z,47.30
2022-11-29T19:06:10.043Z,56.03
2022-11-29T19:08:37.797Z,44.50
2022-11-29T19:11:05.228Z,45.88
2022-11-29T19:13:33.774Z,44.05
2022-11-29T19:16:01.369Z,37.05
2022-11-29T19:18:28.356Z,40.42
2022-11-29T19:21:03.605Z,42.80
2022-11-29T19:23:30.287Z,41.90
2022-11-29T19:26:01.754Z,51.47
2022-11-29T19:28:28.397Z,41.92
2022-11-29T19:30:56.471Z,53.63
2022-11-29T19:33:23.152Z,64.90
2022-11-29T19:35:49.721Z,59.72
2022-11-29T19:38:16.521Z,45.92
2022-11-29T19:40:43.375Z,59.40
2022-11-29T19:43:10.015Z,60.20
2022-11-29T19:45:38.734Z,50.10
2022-11-29T19:48:06.891Z,45.25
2022-11-29T19:50:33.427Z,41.35
2022-11-29T19:53:00.022Z,43.75
2022-11-29T19:55:26.536Z,40.20
2022-11-29T19:57:55.352Z,48.92
2022-11-29T20:00:22.371Z,44.63
2022-11-29T20:02:49.013Z,44.97
2022-11-29T20:05:17.164Z,52.70
2022-11-29T20:07:43.792Z,54.72
2022-11-29T20:10:11.152Z,52.03
2022-11-29T20:12:37.780Z,52.92
2022-11-29T20:15:05.320Z,57.75
2022-11-29T20:17:31.892Z,61.08
2022-11-29T20:19:58.446Z,57.58
2022-11-29T20:22:26.420Z,50.67
2022-11-29T20:24:52.951Z,49.08
2022-11-29T20:27:19.558Z,51.95
2022-11-29T20:29:46.343Z,48.22
2022-11-29T20:32:13.194Z,50.25
2022-11-29T20:34:40.771Z,45.15
2022-11-29T20:37:29.876Z,41.65
2022-11-29T20:39:59.950Z,45.85
2022-11-29T20:42:46.504Z,48.65
2022-11-29T20:45:15.098Z,51.15
2022-11-29T20:47:49.473Z,49.38
2022-11-29T20:50:21.736Z,51.05
2022-11-29T20:53:04.951Z,44.95
2022-11-29T20:55:31.757Z,49.38
2022-11-29T20:57:58.277Z,52.00
2022-11-29T21:00:24.949Z,49.63
2022-11-29T21:02:51.505Z,49.72
2022-11-29T21:05:18.683Z,51.40
2022-11-29T21:07:45.281Z,40.97
2022-11-29T21:10:14.045Z,44.10
2022-11-29T21:12:41.262Z,49.97
2022-11-29T21:15:09.931Z,48.42
2022-11-29T21:17:37.075Z,55.30
2022-11-29T21:20:04.674Z,43.72
2022-11-29T21:22:40.817Z,48.55
2022-11-29T21:25:15.368Z,43.60
2022-11-29T21:27:42.421Z,46.40
2022-11-29T21:30:17.463Z,47.42
2022-11-29T21:32:44.783Z,63.88
2022-11-29T21:35:11.440Z,53.17
2022-11-29T21:37:38.305Z,47.88
2022-11-29T21:40:06.302Z,49.47
2022-11-29T21:42:34.260Z,44.55
2022-11-29T21:45:00.766Z,44.50
2022-11-29T21:47:27.371Z,39.25
2022-11-29T21:49:54.684Z,44.45
2022-11-29T21:52:22.982Z,41.28
2022-11-29T21:54:49.944Z,41.70
2022-11-29T21:57:16.694Z,38.20
2022-11-29T21:59:44.725Z,41.03
2022-11-29T22:02:11.446Z,41.88
2022-11-29T22:04:38.068Z,50.30
2022-11-29T22:07:04.689Z,46.60
2022-11-29T22:09:31.204Z,42.65
2022-11-29T22:11:57.802Z,38.65
2022-11-29T22:14:24.439Z,42.45
2022-11-29T22:16:54.080Z,45.38
2022-11-29T22:19:23.000Z,45.22
2022-11-29T22:21:51.401Z,56.05
2022-11-29T22:24:20.563Z,53.78
2022-11-29T22:26:47.602Z,47.10
2022-11-29T22:29:14.791Z,48.08
2022-11-29T22:31:42.222Z,48.42
2022-11-29T22:34:11.109Z,53.47
2022-11-29T22:36:38.385Z,45.88
2022-11-29T22:39:06.017Z,50.03
2022-11-29T22:41:33.653Z,54.88
2022-11-29T22:44:00.315Z,52.42
2022-11-29T22:46:28.047Z,46.95
2022-11-29T22:48:56.596Z,43.97
2022-11-29T22:51:26.685Z,46.67
2022-11-29T22:53:55.017Z,49.00
2022-11-29T22:56:22.526Z,53.08
2022-11-29T22:58:49.076Z,39.17
2022-11-29T23:01:17.519Z,52.22
2022-11-29T23:03:46.206Z,43.30
2022-11-29T23:06:14.280Z,53.55
2022-11-29T23:08:43.582Z,50.40
2022-11-29T23:11:12.010Z,46.58
2022-11-29T23:13:41.399Z,50.25
2022-11-29T23:16:09.912Z,47.78
2022-11-29T23:18:37.005Z,51.10
2022-11-29T23:21:06.240Z,45.63
2022-11-29T23:23:32.855Z,63.40
2022-11-29T23:26:01.398Z,52.97
2022-11-29T23:28:28.775Z,51.85
2022-11-29T23:30:55.604Z,51.10
2022-11-29T23:33:22.813Z,56.60
2022-11-29T23:35:49.610Z,51.45
2022-11-29T23:38:17.374Z,54.83
2022-11-29T23:40:44.276Z,54.75
2022-11-29T23:43:12.132Z,46.15
2022-11-29T23:45:39.238Z,51.05
2022-11-29T23:48:06.074Z,46.78
2022-11-29T23:50:32.633Z,55.80
2022-11-29T23:52:59.330Z,39.00
2022-11-29T23:55:26.274Z,44.53
2022-11-29T23:57:52.845Z,40.08
